Weather at Sines Airport [CLOSED]

Public forecast

Using degrees Celsius for public forecast. Weather courtesy of forecast.io.

Closest aviation weather report (METAR) to Sines Airport

Closest report is Beja Airport / Airbase, 42.7 nm (79.0 km) ENE. Retrieved 2021/01/20 21:00 UTC (11 minutes ago):

LPBJ 202100Z 25010KT 9999 FEW014 BKN022 12/11 Q1014

Closest aviation forecast (TAF) to Sines Airport

Closest forecast is Beja Airport / Airbase, 42.7 nm (79.0 km) ENE. Retrieved 2021/01/20 18:18 UTC (3 hours ago):

TAF LPBJ 201710Z 2018/2118 26012KT 9999 FEW020 SCT030 PROB30 TEMPO 2018/2024 25012G22KT 4000 SHRA BKN012 FEW020TCU PROB40 TEMPO 2020/2109 BKN005 BECMG 2100/2102 20010KT BECMG 2110/2112 21015KT TEMPO 2112/2118 22015G28KT 7000 -RA SCT012 BKN020